createdAt,value
2023-03-16T00:02:29.697Z,2.95
2023-03-16T00:07:31.746Z,3.38
2023-03-16T00:12:34.945Z,3.83
2023-03-16T00:17:36.887Z,3.58
2023-03-16T00:22:38.739Z,3.58
2023-03-16T00:27:41.406Z,3.40
2023-03-16T00:32:43.428Z,4.22
2023-03-16T00:37:45.342Z,4.20
2023-03-16T00:42:47.205Z,4.78
2023-03-16T00:47:49.412Z,4.50
2023-03-16T00:52:53.767Z,4.75
2023-03-16T00:57:55.676Z,4.15
2023-03-16T01:02:57.561Z,4.20
2023-03-16T01:08:02.580Z,5.32
2023-03-16T01:13:04.474Z,4.68
2023-03-16T01:18:06.577Z,5.10
2023-03-16T01:23:08.415Z,4.43
2023-03-16T01:28:10.661Z,4.40
2023-03-16T01:33:12.737Z,3.75
2023-03-16T01:38:15.343Z,4.25
2023-03-16T01:43:24.148Z,3.60
2023-03-16T01:48:27.537Z,4.00
2023-03-16T01:53:30.262Z,4.38
2023-03-16T01:58:32.396Z,4.53
2023-03-16T02:03:35.148Z,3.08
2023-03-16T02:08:49.197Z,4.07
2023-03-16T02:13:52.842Z,4.15
2023-03-16T02:18:55.515Z,3.80
2023-03-16T02:23:57.771Z,3.80
2023-03-16T02:29:17.168Z,3.20
2023-03-16T02:34:21.629Z,3.65
2023-03-16T02:39:23.814Z,3.22
2023-03-16T02:44:34.035Z,3.15
2023-03-16T02:49:41.536Z,2.95
2023-03-16T02:54:43.612Z,2.90
2023-03-16T02:59:45.950Z,3.35
2023-03-16T03:04:47.872Z,2.92
2023-03-16T03:09:49.706Z,3.50
2023-03-16T03:14:51.558Z,3.53
2023-03-16T03:20:00.013Z,4.40
2023-03-16T03:25:02.916Z,2.75
2023-03-16T03:30:07.183Z,3.28
2023-03-16T03:35:12.390Z,2.70
2023-03-16T03:40:16.632Z,2.95
2023-03-16T03:45:21.565Z,3.60
2023-03-16T03:50:23.593Z,3.10
2023-03-16T03:55:32.965Z,3.00
2023-03-16T04:00:36.017Z,3.95
2023-03-16T04:05:38.024Z,2.63
2023-03-16T04:10:39.961Z,3.05
2023-03-16T04:15:42.413Z,3.22
2023-03-16T04:20:55.919Z,2.75
2023-03-16T04:26:00.182Z,3.05
2023-03-16T04:31:04.725Z,3.40
2023-03-16T04:36:12.103Z,2.90
2023-03-16T04:41:14.728Z,2.65
2023-03-16T04:46:29.600Z,3.55
2023-03-16T04:51:34.305Z,3.22
2023-03-16T04:56:43.074Z,3.00
2023-03-16T05:02:04.173Z,2.38
2023-03-16T05:07:06.877Z,2.65
2023-03-16T05:12:12.933Z,2.80
2023-03-16T05:17:15.376Z,2.83
2023-03-16T05:22:20.061Z,2.80
2023-03-16T05:27:54.471Z,3.00
2023-03-16T05:33:18.343Z,2.90
2023-03-16T05:38:25.905Z,2.70
2023-03-16T05:43:31.692Z,2.63
2023-03-16T05:48:35.901Z,2.38
2023-03-16T05:53:38.818Z,3.00
2023-03-16T06:03:52.170Z,4.30
2023-03-16T06:08:57.819Z,2.92
2023-03-16T06:14:01.900Z,2.97
2023-03-16T06:19:03.754Z,2.92
2023-03-16T06:24:09.269Z,2.90
2023-03-16T06:29:11.877Z,2.70
2023-03-16T06:34:15.148Z,2.95
2023-03-16T06:39:18.516Z,2.95
2023-03-16T06:44:23.657Z,3.70
2023-03-16T06:54:37.780Z,2.70
2023-03-16T06:59:40.680Z,2.33
2023-03-16T07:04:43.643Z,3.15
2023-03-16T07:09:45.992Z,2.95
2023-03-16T07:14:50.808Z,2.65
2023-03-16T07:19:57.172Z,2.63
2023-03-16T07:24:59.215Z,3.75
2023-03-16T07:30:05.455Z,2.72
2023-03-16T07:35:11.584Z,3.35
2023-03-16T07:40:15.114Z,2.15
2023-03-16T07:45:18.112Z,2.30
2023-03-16T07:50:22.352Z,2.08
2023-03-16T07:55:24.693Z,2.30
2023-03-16T08:00:28.322Z,2.35
2023-03-16T08:05:32.675Z,2.95
2023-03-16T08:10:37.553Z,2.72
2023-03-16T08:15:58.534Z,2.70
2023-03-16T08:21:11.928Z,2.00
2023-03-16T08:26:13.952Z,2.00
2023-03-16T08:31:16.360Z,1.65
2023-03-16T08:36:23.985Z,1.38
2023-03-16T08:41:30.952Z,1.38
2023-03-16T08:46:36.793Z,1.15
2023-03-16T08:51:39.357Z,2.60
2023-03-16T08:56:41.185Z,2.90
2023-03-16T09:01:43.638Z,3.20
2023-03-16T09:06:46.499Z,2.83
2023-03-16T09:11:49.948Z,2.70
2023-03-16T09:16:52.392Z,3.10
2023-03-16T09:21:54.199Z,3.20
2023-03-16T09:26:56.203Z,3.10
2023-03-16T09:31:58.116Z,2.80
2023-03-16T09:37:00.588Z,3.33
2023-03-16T09:42:08.549Z,1.52
2023-03-16T09:47:13.305Z,0.98
2023-03-16T09:52:34.187Z,1.45
2023-03-16T09:57:41.224Z,2.20
2023-03-16T10:03:21.582Z,0.90
2023-03-16T10:08:25.741Z,1.10
2023-03-16T10:13:36.798Z,2.17
2023-03-16T10:18:46.154Z,1.42
2023-03-16T10:23:51.314Z,1.70
2023-03-16T10:28:55.064Z,1.17
2023-03-16T10:34:05.317Z,0.70
2023-03-16T10:44:22.791Z,1.50
2023-03-16T10:49:27.195Z,1.00
2023-03-16T10:54:40.090Z,0.80
2023-03-16T10:59:49.766Z,0.77
2023-03-16T11:04:53.216Z,1.23
2023-03-16T11:09:56.328Z,0.70
2023-03-16T11:15:25.185Z,1.00
2023-03-16T11:20:30.833Z,0.90
2023-03-16T11:25:43.522Z,0.55
2023-03-16T11:31:04.806Z,0.77
2023-03-16T11:36:39.056Z,0.77
2023-03-16T11:42:12.710Z,1.30
2023-03-16T11:47:31.006Z,1.45
2023-03-16T11:53:00.781Z,1.35
2023-03-16T11:58:14.824Z,0.98
2023-03-16T12:03:42.791Z,1.10
2023-03-16T12:08:54.770Z,1.05
2023-03-16T12:14:00.500Z,1.13
2023-03-16T12:19:06.763Z,0.95
2023-03-16T12:24:27.006Z,1.20
2023-03-16T12:29:43.937Z,0.80
2023-03-16T12:35:14.914Z,1.00
2023-03-16T12:40:35.665Z,1.02
2023-03-16T12:50:54.883Z,0.90
2023-03-16T12:55:58.064Z,0.90
2023-03-16T13:01:00.465Z,0.88
2023-03-16T13:06:03.618Z,1.50
2023-03-16T13:11:14.794Z,1.95
2023-03-16T13:16:30.770Z,2.80
2023-03-16T13:21:38.661Z,1.13
2023-03-16T13:26:49.508Z,1.00
2023-03-16T13:31:52.810Z,0.95
2023-03-16T13:36:57.235Z,1.65
2023-03-16T13:42:02.017Z,1.45
2023-03-16T13:47:05.814Z,1.58
2023-03-16T13:52:14.877Z,1.48
2023-03-16T13:57:19.891Z,1.40
2023-03-16T14:02:23.301Z,1.77
2023-03-16T14:07:26.365Z,1.50
2023-03-16T14:12:28.199Z,1.40
2023-03-16T14:17:30.152Z,2.50
2023-03-16T14:22:37.784Z,1.65
2023-03-16T14:27:39.600Z,2.15
2023-03-16T14:32:42.088Z,1.50
2023-03-16T14:37:45.065Z,1.55
2023-03-16T14:42:46.964Z,1.95
2023-03-16T14:47:50.898Z,2.60
2023-03-16T14:52:55.997Z,2.08
2023-03-16T14:57:58.161Z,2.30
2023-03-16T15:03:11.135Z,2.88
2023-03-16T15:08:19.134Z,3.03
2023-03-16T15:13:37.186Z,2.55
2023-03-16T15:18:39.965Z,3.17
2023-03-16T15:23:43.898Z,3.42
2023-03-16T15:28:46.175Z,3.70
2023-03-16T15:33:48.050Z,4.45
2023-03-16T15:38:53.583Z,4.30
2023-03-16T15:44:00.763Z,3.80
2023-03-16T15:49:02.631Z,3.75
2023-03-16T15:54:07.087Z,3.08
2023-03-16T15:59:17.032Z,4.13
2023-03-16T16:04:22.843Z,4.07
2023-03-16T16:09:24.890Z,4.20
2023-03-16T16:14:26.913Z,4.90
2023-03-16T16:19:30.120Z,4.13
2023-03-16T16:24:33.588Z,3.83
2023-03-16T16:29:35.935Z,3.35
2023-03-16T16:34:37.781Z,4.30
2023-03-16T16:39:40.609Z,3.80
2023-03-16T16:44:43.574Z,4.60
2023-03-16T16:49:45.549Z,4.10
2023-03-16T16:54:47.436Z,4.00
2023-03-16T16:59:49.567Z,4.05
2023-03-16T17:04:51.857Z,4.18
2023-03-16T17:09:53.755Z,4.00
2023-03-16T17:14:55.592Z,3.47
2023-03-16T17:19:57.482Z,3.80
2023-03-16T17:24:59.562Z,4.03
2023-03-16T17:30:01.980Z,3.97
2023-03-16T17:35:14.745Z,3.95
2023-03-16T17:40:23.219Z,4.85
2023-03-16T17:45:29.893Z,4.07
2023-03-16T17:50:34.407Z,5.20
2023-03-16T17:55:41.021Z,6.13
2023-03-16T18:00:47.323Z,6.75
2023-03-16T18:05:50.124Z,7.32
2023-03-16T18:11:04.428Z,4.85
2023-03-16T18:16:08.218Z,4.80
2023-03-16T18:21:21.966Z,5.13
2023-03-16T18:26:24.870Z,4.40
2023-03-16T18:31:28.537Z,3.90
2023-03-16T18:36:33.779Z,4.72
2023-03-16T18:41:36.310Z,2.92
2023-03-16T18:46:39.289Z,3.63
2023-03-16T18:51:43.211Z,4.60
2023-03-16T18:56:45.267Z,4.88
2023-03-16T19:01:47.881Z,3.30
2023-03-16T19:06:53.575Z,4.32
2023-03-16T19:11:55.899Z,4.18
2023-03-16T19:16:58.041Z,3.63
2023-03-16T19:22:12.799Z,3.70
2023-03-16T19:27:22.945Z,3.08
2023-03-16T19:37:30.150Z,3.20
2023-03-16T19:42:37.492Z,3.55
2023-03-16T19:47:39.909Z,3.05
2023-03-16T19:52:42.036Z,3.45
2023-03-16T19:57:45.471Z,3.20
2023-03-16T20:02:48.391Z,3.40
2023-03-16T20:07:50.799Z,3.22
2023-03-16T20:12:58.654Z,3.70
2023-03-16T20:18:00.520Z,3.40
2023-03-16T20:23:02.976Z,2.65
2023-03-16T20:28:14.465Z,3.28
2023-03-16T20:33:25.259Z,3.42
2023-03-16T20:38:27.136Z,2.70
2023-03-16T20:43:31.705Z,3.70
2023-03-16T20:48:34.288Z,3.97
2023-03-16T20:53:36.217Z,2.60
2023-03-16T20:58:38.140Z,3.28
2023-03-16T21:03:39.956Z,3.30
2023-03-16T21:08:41.833Z,3.83
2023-03-16T21:13:43.680Z,3.83
2023-03-16T21:18:45.707Z,4.10
2023-03-16T21:23:48.225Z,3.90
2023-03-16T21:28:57.608Z,3.70
2023-03-16T21:34:00.716Z,3.38
2023-03-16T21:39:06.473Z,4.10
2023-03-16T21:44:09.176Z,3.72
2023-03-16T21:49:12.257Z,3.97
2023-03-16T21:54:15.366Z,5.28
2023-03-16T21:59:17.453Z,4.15
2023-03-16T22:04:19.391Z,5.15
2023-03-16T22:09:22.691Z,4.55
2023-03-16T22:14:24.694Z,4.10
2023-03-16T22:19:27.491Z,4.45
2023-03-16T22:24:30.956Z,4.20
2023-03-16T22:29:36.615Z,3.95
2023-03-16T22:34:46.689Z,4.43
2023-03-16T22:44:51.839Z,4.28
2023-03-16T22:49:54.521Z,4.82
2023-03-16T22:54:58.711Z,3.90
2023-03-16T23:00:07.128Z,4.40
2023-03-16T23:05:20.989Z,3.75
2023-03-16T23:10:25.725Z,3.95
2023-03-16T23:15:30.282Z,3.90
2023-03-16T23:20:32.806Z,4.32
2023-03-16T23:25:35.420Z,3.88
2023-03-16T23:30:37.581Z,3.08
2023-03-16T23:35:41.319Z,4.03
2023-03-16T23:40:43.354Z,3.30
2023-03-16T23:45:46.855Z,3.45
2023-03-16T23:50:52.254Z,3.15
2023-03-16T23:55:54.124Z,2.95
